Time;durP1;ratioP1;P1;durP2;ratioP2;P2;SDS_P1;SDS_P2;PMS_P1;PMS_P2;Temp;Humidity;BMP_temperature;BMP_pressure;BME280_temperature;BME280_humidity;BME280_pressure;Samples;Min_cycle;Max_cycle;Signal;HPM_P1;HPM_P2
2023/03/15 00:02:24;;;;;;;4.63;1.20;;;;;;;;;;5009351;28;20042;-88
2023/03/15 00:05:11;;;;;;;1.60;0.90;;;;;;;;;;5006977;28;20046;-85
2023/03/15 00:07:54;;;;;;;2.08;0.98;;;;;;;;;;4999105;28;20060;-86
2023/03/15 00:10:27;;;;;;;1.33;1.20;;;;;;;;;;5008803;28;20124;-85
2023/03/15 00:12:55;;;;;;;3.60;1.10;;;;;;;;;;4989570;28;20331;-85
2023/03/15 00:15:26;;;;;;;2.17;1.08;;;;;;;;;;5006318;28;20053;-85
2023/03/15 00:18:05;;;;;;;2.50;1.10;;;;;;;;;;4993473;28;20053;-86
2023/03/15 00:20:39;;;;;;;3.30;1.35;;;;;;;;;;4988516;28;20045;-85
2023/03/15 00:23:13;;;;;;;2.78;1.20;;;;;;;;;;5010707;28;20523;-86
2023/03/15 00:25:47;;;;;;;1.65;1.30;;;;;;;;;;4993302;28;20046;-86
2023/03/15 00:28:21;;;;;;;3.47;1.60;;;;;;;;;;5010192;28;20615;-86
2023/03/15 00:31:04;;;;;;;3.40;2.20;;;;;;;;;;4987064;28;20066;-86
2023/03/15 00:33:38;;;;;;;7.13;2.65;;;;;;;;;;4986327;28;20088;-87
2023/03/15 00:36:08;;;;;;;5.13;2.50;;;;;;;;;;4991676;28;20042;-86
2023/03/15 00:38:40;;;;;;;7.32;2.70;;;;;;;;;;4986718;28;20310;-86
2023/03/15 00:41:17;;;;;;;4.93;2.70;;;;;;;;;;4993094;28;20537;-86
2023/03/15 00:43:50;;;;;;;3.72;1.98;;;;;;;;;;4989480;28;20064;-86
2023/03/15 00:46:23;;;;;;;4.40;2.65;;;;;;;;;;4992400;28;20214;-86
2023/03/15 00:49:15;;;;;;;3.60;2.25;;;;;;;;;;4980671;28;20049;-87
2023/03/15 00:51:50;;;;;;;2.88;2.33;;;;;;;;;;4988455;28;20048;-86
2023/03/15 00:54:23;;;;;;;3.35;2.38;;;;;;;;;;4993664;28;20073;-85
2023/03/15 00:56:57;;;;;;;4.65;2.05;;;;;;;;;;4992748;28;20045;-86
2023/03/15 00:59:33;;;;;;;3.80;1.95;;;;;;;;;;4992875;28;20038;-86
2023/03/15 01:02:13;;;;;;;1.75;1.35;;;;;;;;;;4981110;28;20073;-86
2023/03/15 01:04:44;;;;;;;2.25;1.05;;;;;;;;;;4983441;28;20538;-86
2023/03/15 01:07:15;;;;;;;1.00;0.80;;;;;;;;;;4991124;28;20042;-85
2023/03/15 01:09:43;;;;;;;1.45;1.20;;;;;;;;;;5010876;28;20042;-86
2023/03/15 01:12:28;;;;;;;1.80;1.67;;;;;;;;;;4992131;28;20046;-86
2023/03/15 01:15:15;;;;;;;103.30;93.10;;;;;;;;;;4994085;28;20468;-87
2023/03/15 01:17:43;;;;;;;3.47;1.15;;;;;;;;;;4986092;28;20053;-86
2023/03/15 01:20:20;;;;;;;1.73;0.90;;;;;;;;;;5005327;28;20050;-86
2023/03/15 01:22:48;;;;;;;5.25;1.10;;;;;;;;;;4985907;28;20096;-86
2023/03/15 01:25:18;;;;;;;1.05;0.77;;;;;;;;;;4992350;28;20050;-86
2023/03/15 01:27:53;;;;;;;2.92;0.80;;;;;;;;;;5009581;28;20052;-86
2023/03/15 01:30:50;;;;;;;105.13;93.53;;;;;;;;;;4992562;28;20096;-87
2023/03/15 01:33:32;;;;;;;3.28;0.90;;;;;;;;;;5002613;28;20041;-86
2023/03/15 01:36:10;;;;;;;1.58;0.82;;;;;;;;;;4987350;28;20125;-86
2023/03/15 01:38:41;;;;;;;2.22;1.23;;;;;;;;;;4976717;28;20042;-86
2023/03/15 01:41:14;;;;;;;1.35;1.10;;;;;;;;;;4991822;28;20081;-86
2023/03/15 01:43:48;;;;;;;1.50;0.90;;;;;;;;;;4985666;28;20542;-86
2023/03/15 01:46:22;;;;;;;2.42;1.20;;;;;;;;;;4991810;28;20146;-86
2023/03/15 01:48:58;;;;;;;;;;;;;;;;;;4992653;28;20046;-87
2023/03/15 01:51:42;;;;;;;17.33;9.57;;;;;;;;;;4991577;28;19921;-87
2023/03/15 01:54:19;;;;;;;5.95;0.98;;;;;;;;;;4991289;28;20480;-86
2023/03/15 01:56:59;;;;;;;1.45;0.90;;;;;;;;;;4984911;28;20120;-86
2023/03/15 01:59:30;;;;;;;2.13;0.93;;;;;;;;;;4991899;28;20061;-87
2023/03/15 02:02:13;;;;;;;1.48;1.10;;;;;;;;;;4990977;28;20414;-86
2023/03/15 02:04:48;;;;;;;2.25;1.00;;;;;;;;;;4988194;28;20043;-85
2023/03/15 02:07:22;;;;;;;1.73;0.90;;;;;;;;;;4990160;28;20046;-86
2023/03/15 02:09:51;;;;;;;;;;;;;;;;;;4991331;28;20056;-86
2023/03/15 02:12:22;;;;;;;1.73;0.93;;;;;;;;;;4991360;28;20163;-86
2023/03/15 02:14:53;;;;;;;1.75;1.13;;;;;;;;;;4986025;28;20045;-87
2023/03/15 02:17:34;;;;;;;3.60;0.93;;;;;;;;;;5008580;28;20056;-87
2023/03/15 02:20:09;;;;;;;1.52;0.85;;;;;;;;;;5010675;28;20108;-87
2023/03/15 02:22:46;;;;;;;0.80;0.80;;;;;;;;;;5010651;28;20053;-87
2023/03/15 02:25:38;;;;;;;1.35;0.90;;;;;;;;;;5013047;28;20045;-87
2023/03/15 02:28:07;;;;;;;1.05;1.00;;;;;;;;;;5012820;28;20061;-87
2023/03/15 02:30:44;;;;;;;3.45;1.10;;;;;;;;;;5002507;28;20061;-87
2023/03/15 02:33:21;;;;;;;1.38;0.90;;;;;;;;;;5010599;28;20056;-86
2023/03/15 02:35:50;;;;;;;1.63;1.00;;;;;;;;;;5006057;28;20048;-86
2023/03/15 02:38:25;;;;;;;2.55;0.95;;;;;;;;;;5020932;28;20060;-87
2023/03/15 02:40:53;;;;;;;1.52;1.05;;;;;;;;;;4985187;28;20119;-87
2023/03/15 02:43:27;;;;;;;2.85;1.00;;;;;;;;;;4991690;28;20069;-86
2023/03/15 02:45:57;;;;;;;3.28;0.80;;;;;;;;;;4991288;28;20058;-86
2023/03/15 02:48:25;;;;;;;2.80;0.80;;;;;;;;;;4990473;28;20050;-86
2023/03/15 02:51:03;;;;;;;1.20;0.93;;;;;;;;;;4991303;28;20523;-85
2023/03/15 02:53:31;;;;;;;1.60;1.02;;;;;;;;;;4989473;28;20042;-86
2023/03/15 02:56:02;;;;;;;3.40;1.23;;;;;;;;;;4990524;28;20061;-86
2023/03/15 02:58:35;;;;;;;2.67;1.15;;;;;;;;;;4983455;28;20515;-87
2023/03/15 03:01:12;;;;;;;0.88;0.88;;;;;;;;;;4990558;28;20590;-86
2023/03/15 03:03:44;;;;;;;1.50;1.00;;;;;;;;;;4989960;28;20117;-86
2023/03/15 03:06:18;;;;;;;1.00;0.93;;;;;;;;;;5008784;28;20038;-86
2023/03/15 03:08:54;;;;;;;1.73;1.10;;;;;;;;;;4990066;28;20053;-87
2023/03/15 03:11:24;;;;;;;0.95;0.95;;;;;;;;;;4990428;28;20046;-86
2023/03/15 03:13:58;;;;;;;2.35;1.25;;;;;;;;;;4990722;28;20052;-87
2023/03/15 03:16:27;;;;;;;1.20;1.00;;;;;;;;;;4989611;28;20046;-89
2023/03/15 03:19:02;;;;;;;1.27;1.10;;;;;;;;;;5005302;28;20581;-87
2023/03/15 03:21:48;;;;;;;1.83;0.80;;;;;;;;;;4982685;28;20676;-87
2023/03/15 03:24:55;;;;;;;3.28;1.20;;;;;;;;;;4969559;28;20050;-87
2023/03/15 03:27:58;;;;;;;1.38;0.88;;;;;;;;;;4985694;28;20042;-87
2023/03/15 03:30:55;;;;;;;1.38;1.20;;;;;;;;;;4985392;28;20034;-87
2023/03/15 03:33:41;;;;;;;2.80;1.00;;;;;;;;;;4990537;28;20042;-87
2023/03/15 03:36:19;;;;;;;1.63;1.20;;;;;;;;;;4989494;28;20038;-87
2023/03/15 03:38:58;;;;;;;2.03;1.38;;;;;;;;;;4984841;28;20042;-86
2023/03/15 03:41:50;;;;;;;;;;;;;;;;;;;;;
2023/03/15 03:44:36;;;;;;;1.83;1.20;;;;;;;;;;4989702;28;20069;-87
2023/03/15 03:47:23;;;;;;;;;;;;;;;;;;4981478;28;20449;-86
2023/03/15 03:50:33;;;;;;;1.10;1.00;;;;;;;;;;5007236;28;19932;-86
2023/03/15 03:53:53;;;;;;;5.60;1.35;;;;;;;;;;4979093;28;20053;-87
2023/03/15 03:56:40;;;;;;;3.30;1.15;;;;;;;;;;4993530;28;20056;-87
2023/03/15 03:59:39;;;;;;;1.02;1.02;;;;;;;;;;4991517;28;20046;-87
2023/03/15 04:02:33;;;;;;;2.38;1.10;;;;;;;;;;5004427;28;20246;-86
2023/03/15 04:05:28;;;;;;;1.45;1.20;;;;;;;;;;4993102;28;20574;-86
2023/03/15 04:08:13;;;;;;;1.40;1.30;;;;;;;;;;4987676;28;20415;-86
2023/03/15 04:10:56;;;;;;;1.15;1.00;;;;;;;;;;4988262;28;20153;-87
2023/03/15 04:13:46;;;;;;;2.15;1.55;;;;;;;;;;4993781;28;20158;-87
2023/03/15 04:16:31;;;;;;;3.38;1.50;;;;;;;;;;4993410;28;20045;-86
2023/03/15 04:19:11;;;;;;;1.50;1.40;;;;;;;;;;4993907;28;20385;-88
2023/03/15 04:21:47;;;;;;;2.38;1.30;;;;;;;;;;4993331;28;20042;-87
2023/03/15 04:24:44;;;;;;;1.40;1.30;;;;;;;;;;4992822;28;20041;-87
2023/03/15 04:27:29;;;;;;;1.20;1.15;;;;;;;;;;4993525;28;20038;-87
2023/03/15 04:30:16;;;;;;;1.33;1.23;;;;;;;;;;4986593;28;20420;-86
2023/03/15 04:33:05;;;;;;;0.75;0.75;;;;;;;;;;5007341;28;20046;-86
2023/03/15 04:35:58;;;;;;;2.80;1.60;;;;;;;;;;5005787;28;20046;-86
2023/03/15 04:39:08;;;;;;;1.30;1.20;;;;;;;;;;4938468;29;20058;-87
2023/03/15 04:42:05;;;;;;;1.10;1.10;;;;;;;;;;4942056;29;20134;-86
2023/03/15 04:44:57;;;;;;;1.35;1.27;;;;;;;;;;4989681;28;20388;-86
2023/03/15 04:47:42;;;;;;;2.53;1.52;;;;;;;;;;4992992;28;20042;-86
2023/03/15 04:50:40;;;;;;;1.48;1.20;;;;;;;;;;5103727;23;20195;-79
2023/03/15 04:53:22;;;;;;;23.10;20.95;;;;;;;;;;4991594;28;20146;-78
2023/03/15 04:56:03;;;;;;;0.93;0.90;;;;;;;;;;4997551;28;20081;-79
2023/03/15 04:58:43;;;;;;;0.63;0.63;;;;;;;;;;4992006;28;20046;-79
2023/03/15 05:01:30;;;;;;;0.65;0.65;;;;;;;;;;5004537;28;20583;-79
2023/03/15 05:04:24;;;;;;;3.08;2.88;;;;;;;;;;4997544;28;20074;-79
2023/03/15 05:07:08;;;;;;;3.42;3.22;;;;;;;;;;4988155;28;20463;-79
2023/03/15 05:09:59;;;;;;;0.70;0.40;;;;;;;;;;5001726;28;20395;-79
2023/03/15 05:12:50;;;;;;;2.27;0.57;;;;;;;;;;4979473;28;20145;-79
2023/03/15 05:15:35;;;;;;;16.45;15.00;;;;;;;;;;4983799;28;20367;-79
2023/03/15 05:18:21;;;;;;;1.50;0.70;;;;;;;;;;5001775;28;20081;-79
2023/03/15 05:21:08;;;;;;;1.75;0.60;;;;;;;;;;4989545;28;20076;-79
2023/03/15 05:23:59;;;;;;;1.55;0.70;;;;;;;;;;4989261;28;20042;-79
2023/03/15 05:26:33;;;;;;;0.98;0.45;;;;;;;;;;4986744;28;20052;-79
2023/03/15 05:29:23;;;;;;;2.05;0.85;;;;;;;;;;4995341;28;20057;-78
2023/03/15 05:32:08;;;;;;;4.28;1.40;;;;;;;;;;4995125;28;20123;-78
2023/03/15 05:35:04;;;;;;;2.45;1.20;;;;;;;;;;4992368;28;20129;-78
2023/03/15 05:37:41;;;;;;;1.77;0.85;;;;;;;;;;4980621;28;20053;-78
2023/03/15 05:40:09;;;;;;;1.95;1.00;;;;;;;;;;4993775;28;20039;-78
2023/03/15 05:42:45;;;;;;;2.10;1.05;;;;;;;;;;4986427;28;20049;-78
2023/03/15 05:45:39;;;;;;;1.25;1.10;;;;;;;;;;4981048;28;20040;-77
2023/03/15 05:48:26;;;;;;;6.78;6.18;;;;;;;;;;5007325;28;20495;-78
2023/03/15 05:50:58;;;;;;;2.70;0.95;;;;;;;;;;5005846;28;20129;-78
2023/03/15 05:53:45;;;;;;;1.98;1.00;;;;;;;;;;5004929;28;20519;-78
2023/03/15 05:56:33;;;;;;;8.80;4.03;;;;;;;;;;5008301;28;20128;-78
2023/03/15 05:59:18;;;;;;;2.13;0.85;;;;;;;;;;5001036;28;20283;-78
2023/03/15 06:02:04;;;;;;;30.85;23.10;;;;;;;;;;5002043;28;20316;-78
2023/03/15 06:04:40;;;;;;;21.73;17.75;;;;;;;;;;4986473;28;20046;-78
2023/03/15 06:07:10;;;;;;;3.22;2.95;;;;;;;;;;4985282;28;20116;-79
2023/03/15 06:09:38;;;;;;;3.65;1.13;;;;;;;;;;5006546;28;20053;-78
2023/03/15 06:12:06;;;;;;;26.63;23.98;;;;;;;;;;4987093;28;20563;-78
2023/03/15 06:14:33;;;;;;;3.83;1.27;;;;;;;;;;4980924;28;20042;-78
2023/03/15 06:17:06;;;;;;;10.52;9.77;;;;;;;;;;4979981;28;20045;-79
2023/03/15 06:19:33;;;;;;;2.05;1.00;;;;;;;;;;4991546;28;20049;-78
2023/03/15 06:22:03;;;;;;;3.67;1.30;;;;;;;;;;4997053;28;20043;-78
2023/03/15 06:24:43;;;;;;;4.38;1.40;;;;;;;;;;4984703;28;20046;-78
2023/03/15 06:27:11;;;;;;;29.67;12.45;;;;;;;;;;4983304;28;20076;-78
2023/03/15 06:29:38;;;;;;;35.30;26.20;;;;;;;;;;4982291;28;20057;-78
2023/03/15 06:32:07;;;;;;;3.25;1.70;;;;;;;;;;4981208;28;20407;-79
2023/03/15 06:34:36;;;;;;;4.25;1.30;;;;;;;;;;4975098;28;20137;-78
2023/03/15 06:37:04;;;;;;;3.03;1.13;;;;;;;;;;5001282;28;20042;-78
2023/03/15 06:39:33;;;;;;;1.58;1.10;;;;;;;;;;4970348;28;20069;-79
2023/03/15 06:42:02;;;;;;;4.68;1.10;;;;;;;;;;4974964;28;20546;-79
2023/03/15 06:44:32;;;;;;;65.47;60.00;;;;;;;;;;4979758;28;20441;-78
2023/03/15 06:47:03;;;;;;;2.67;0.82;;;;;;;;;;4983775;28;20496;-78
2023/03/15 06:49:31;;;;;;;4.40;1.38;;;;;;;;;;4971107;28;20042;-79
2023/03/15 06:52:00;;;;;;;4.53;1.45;;;;;;;;;;4976226;28;20139;-78
2023/03/15 06:54:27;;;;;;;2.63;2.08;;;;;;;;;;4980913;28;20050;-78
2023/03/15 06:56:56;;;;;;;5.82;1.50;;;;;;;;;;4970411;28;20416;-78
2023/03/15 06:59:23;;;;;;;6.50;1.55;;;;;;;;;;4995597;28;20173;-78
2023/03/15 07:01:50;;;;;;;6.20;4.97;;;;;;;;;;4993383;28;20328;-78
2023/03/15 07:04:18;;;;;;;6.53;5.90;;;;;;;;;;4980508;28;20065;-79
2023/03/15 07:06:45;;;;;;;4.82;1.77;;;;;;;;;;4991268;28;20042;-78
2023/03/15 07:09:12;;;;;;;6.38;1.92;;;;;;;;;;4991736;28;20073;-78
2023/03/15 07:11:40;;;;;;;7.35;1.83;;;;;;;;;;4977363;28;20124;-78
2023/03/15 07:14:07;;;;;;;3.08;1.48;;;;;;;;;;4992758;28;20084;-77
2023/03/15 07:16:35;;;;;;;9.18;5.55;;;;;;;;;;4994132;28;20045;-78
2023/03/15 07:19:02;;;;;;;26.45;23.85;;;;;;;;;;4994339;28;20100;-78
2023/03/15 07:21:30;;;;;;;2.92;1.40;;;;;;;;;;4996632;28;20060;-78
2023/03/15 07:23:57;;;;;;;3.15;1.38;;;;;;;;;;4995960;28;20048;-78
2023/03/15 07:26:25;;;;;;;2.03;1.17;;;;;;;;;;4994697;28;20530;-77
2023/03/15 07:28:52;;;;;;;5.22;1.50;;;;;;;;;;5007091;28;20181;-77
2023/03/15 07:31:19;;;;;;;2.70;1.50;;;;;;;;;;4999216;28;20823;-79
2023/03/15 07:33:47;;;;;;;4.28;1.52;;;;;;;;;;4994117;28;20343;-78
2023/03/15 07:36:14;;;;;;;9.52;7.05;;;;;;;;;;5005070;28;20096;-77
2023/03/15 07:38:41;;;;;;;12.55;11.45;;;;;;;;;;5009045;28;20121;-77
2023/03/15 07:41:09;;;;;;;5.43;4.80;;;;;;;;;;5008621;28;20053;-77
2023/03/15 07:43:40;;;;;;;5.97;1.70;;;;;;;;;;4992194;28;20046;-77
2023/03/15 07:46:12;;;;;;;9.75;8.93;;;;;;;;;;4991632;28;20046;-78
2023/03/15 07:48:40;;;;;;;97.35;72.05;;;;;;;;;;5008474;28;20058;-78
2023/03/15 07:51:07;;;;;;;3.88;1.52;;;;;;;;;;4996520;28;20132;-78
2023/03/15 07:53:36;;;;;;;9.10;8.38;;;;;;;;;;4990900;28;20077;-77
2023/03/15 07:56:08;;;;;;;8.88;7.50;;;;;;;;;;4990212;28;20053;-78
2023/03/15 07:58:35;;;;;;;35.22;32.17;;;;;;;;;;5009152;28;20567;-78
2023/03/15 08:01:03;;;;;;;19.45;16.27;;;;;;;;;;5009227;28;20048;-78
2023/03/15 08:03:30;;;;;;;5.30;4.40;;;;;;;;;;5009543;28;20058;-78
2023/03/15 08:05:57;;;;;;;3.33;1.88;;;;;;;;;;5015104;28;20077;-78
2023/03/15 08:08:25;;;;;;;2.92;1.70;;;;;;;;;;5025852;28;20109;-78
2023/03/15 08:10:52;;;;;;;3.83;1.27;;;;;;;;;;5015536;28;20054;-77
2023/03/15 08:13:19;;;;;;;4.95;2.65;;;;;;;;;;5008250;28;20395;-77
2023/03/15 08:15:47;;;;;;;4.45;1.67;;;;;;;;;;5008347;28;20573;-77
2023/03/15 08:18:14;;;;;;;2.92;1.40;;;;;;;;;;5006424;28;20570;-78
2023/03/15 08:20:42;;;;;;;2.05;1.15;;;;;;;;;;5007089;28;20447;-78
2023/03/15 08:23:15;;;;;;;6.13;2.10;;;;;;;;;;5008886;28;20042;-78
2023/03/15 08:25:43;;;;;;;4.25;1.63;;;;;;;;;;5007340;28;20054;-78
2023/03/15 08:28:11;;;;;;;2.53;1.40;;;;;;;;;;5008980;28;20046;-78
2023/03/15 08:30:39;;;;;;;4.97;1.80;;;;;;;;;;5007945;28;20090;-78
2023/03/15 08:33:07;;;;;;;2.42;1.33;;;;;;;;;;5007293;28;20069;-77
2023/03/15 08:35:34;;;;;;;3.00;1.85;;;;;;;;;;5007486;28;20096;-78
2023/03/15 08:38:02;;;;;;;6.25;1.50;;;;;;;;;;5007813;28;20049;-78
2023/03/15 08:40:29;;;;;;;5.05;2.20;;;;;;;;;;5008016;28;20203;-78
2023/03/15 08:42:57;;;;;;;25.20;23.42;;;;;;;;;;5007670;28;20121;-78
2023/03/15 08:45:24;;;;;;;10.27;9.25;;;;;;;;;;5007411;28;20054;-78
2023/03/15 08:47:58;;;;;;;5.40;1.90;;;;;;;;;;4989008;28;20045;-78
2023/03/15 08:50:27;;;;;;;13.82;12.52;;;;;;;;;;5006507;28;20084;-78
2023/03/15 08:52:54;;;;;;;64.30;58.53;;;;;;;;;;5003203;28;20060;-78
2023/03/15 08:55:22;;;;;;;3.20;2.67;;;;;;;;;;5003678;28;20061;-78
2023/03/15 08:57:50;;;;;;;8.68;1.88;;;;;;;;;;5007249;28;20077;-78
2023/03/15 09:00:21;;;;;;;8.10;2.08;;;;;;;;;;5003027;28;20050;-78
2023/03/15 09:02:51;;;;;;;24.08;21.00;;;;;;;;;;4989028;28;20041;-78
2023/03/15 09:05:19;;;;;;;4.55;2.42;;;;;;;;;;5005627;28;20046;-78
2023/03/15 09:07:47;;;;;;;18.83;15.80;;;;;;;;;;5005919;28;20038;-79
2023/03/15 09:10:17;;;;;;;4.10;1.60;;;;;;;;;;4988076;28;20054;-79
2023/03/15 09:12:46;;;;;;;6.70;1.80;;;;;;;;;;5007464;28;20113;-79
2023/03/15 09:15:18;;;;;;;4.45;1.60;;;;;;;;;;5005103;28;20137;-79
2023/03/15 09:17:45;;;;;;;4.68;1.85;;;;;;;;;;4987050;28;20049;-79
2023/03/15 09:20:15;;;;;;;34.28;31.63;;;;;;;;;;5004210;28;20060;-79
2023/03/15 09:22:43;;;;;;;96.47;88.30;;;;;;;;;;5005279;28;20066;-79
2023/03/15 09:25:10;;;;;;;4.25;1.80;;;;;;;;;;5003936;28;20100;-79
2023/03/15 09:27:40;;;;;;;4.55;2.17;;;;;;;;;;4993463;28;20042;-77
2023/03/15 09:30:09;;;;;;;8.18;7.13;;;;;;;;;;4994968;28;20561;-79
2023/03/15 09:32:36;;;;;;;17.50;13.23;;;;;;;;;;4983881;28;20050;-78
2023/03/15 09:35:04;;;;;;;9.82;8.82;;;;;;;;;;4990359;28;20053;-78
2023/03/15 09:37:32;;;;;;;3.17;2.45;;;;;;;;;;4990928;28;20057;-79
2023/03/15 09:40:00;;;;;;;63.72;57.20;;;;;;;;;;4993952;28;20117;-78
2023/03/15 09:42:30;;;;;;;4.18;3.88;;;;;;;;;;4998286;28;20247;-78
2023/03/15 09:45:06;;;;;;;6.50;5.95;;;;;;;;;;5001594;28;20096;-78
2023/03/15 09:47:46;;;;;;;71.28;65.80;;;;;;;;;;5004605;28;20065;-78
2023/03/15 09:50:13;;;;;;;23.35;18.45;;;;;;;;;;5009898;28;20043;-78
2023/03/15 09:52:50;;;;;;;20.88;18.63;;;;;;;;;;5014798;28;20037;-78
2023/03/15 09:55:22;;;;;;;2.47;2.22;;;;;;;;;;4994011;28;20056;-77
2023/03/15 09:57:52;;;;;;;38.40;35.60;;;;;;;;;;4981722;28;20064;-77
2023/03/15 10:00:21;;;;;;;4.28;1.80;;;;;;;;;;5002476;28;20042;-77
2023/03/15 10:02:54;;;;;;;2.65;1.30;;;;;;;;;;4997020;28;20072;-77
2023/03/15 10:05:42;;;;;;;31.70;29.35;;;;;;;;;;4996558;28;20046;-77
2023/03/15 10:08:11;;;;;;;50.75;46.78;;;;;;;;;;4949114;28;20045;-77
2023/03/15 10:10:44;;;;;;;108.75;100.25;;;;;;;;;;4995599;28;20072;-77
2023/03/15 10:13:24;;;;;;;52.67;47.80;;;;;;;;;;4999287;28;20072;-77
2023/03/15 10:16:07;;;;;;;4.35;1.70;;;;;;;;;;4987528;28;20069;-77
2023/03/15 10:18:44;;;;;;;3.33;1.55;;;;;;;;;;5006568;28;20049;-77
2023/03/15 10:21:15;;;;;;;55.53;50.75;;;;;;;;;;5004499;28;20065;-77
2023/03/15 10:23:50;;;;;;;3.35;1.88;;;;;;;;;;5006008;28;20050;-78
2023/03/15 10:26:19;;;;;;;5.25;1.77;;;;;;;;;;5006765;28;20133;-78
2023/03/15 10:28:47;;;;;;;13.38;12.15;;;;;;;;;;5007349;28;20085;-77
2023/03/15 10:31:15;;;;;;;28.65;25.17;;;;;;;;;;5006441;28;20050;-77
2023/03/15 10:33:56;;;;;;;21.27;15.02;;;;;;;;;;5006270;28;20080;-77
2023/03/15 10:36:24;;;;;;;6.15;1.58;;;;;;;;;;5004510;28;20054;-78
2023/03/15 10:38:52;;;;;;;3.15;1.40;;;;;;;;;;5004935;28;20540;-78
2023/03/15 10:41:38;;;;;;;6.05;5.47;;;;;;;;;;5002934;28;20125;-79
2023/03/15 10:44:14;;;;;;;28.08;25.42;;;;;;;;;;4992202;28;20507;-78
2023/03/15 10:46:41;;;;;;;4.95;1.40;;;;;;;;;;4988771;28;20416;-79
2023/03/15 10:49:11;;;;;;;90.57;81.38;;;;;;;;;;5004270;28;20303;-78
2023/03/15 10:52:06;;;;;;;36.97;33.28;;;;;;;;;;5056646;23;20456;-89
2023/03/15 10:55:20;;;;;;;42.10;39.05;;;;;;;;;;5009667;28;20045;-90
2023/03/15 10:58:17;;;;;;;5.75;1.67;;;;;;;;;;5008108;28;20056;-89
2023/03/15 11:01:47;;;;;;;28.85;26.65;;;;;;;;;;5006127;28;20042;-90
2023/03/15 11:05:17;;;;;;;48.63;45.13;;;;;;;;;;5011017;28;20061;-88
2023/03/15 11:11:11;;;;;;;12.35;11.40;;;;;;;;;;5010726;28;20125;-90
2023/03/15 11:14:15;;;;;;;7.80;6.05;;;;;;;;;;4995765;28;20073;-89
2023/03/15 11:20:45;;;;;;;8.68;6.30;;;;;;;;;;5009147;28;20045;-90
2023/03/15 11:23:54;;;;;;;80.00;74.15;;;;;;;;;;5009557;28;20070;-89
2023/03/15 11:26:44;;;;;;;4.03;2.50;;;;;;;;;;5010193;28;20042;-88
2023/03/15 11:29:39;;;;;;;8.93;8.20;;;;;;;;;;5009999;28;20474;-89
2023/03/15 11:32:15;;;;;;;77.55;69.95;;;;;;;;;;5011169;28;20050;-89
2023/03/15 11:34:57;;;;;;;26.15;23.92;;;;;;;;;;5012646;28;20125;-89
2023/03/15 11:38:32;;;;;;;4.55;1.95;;;;;;;;;;4985986;28;20057;-88
2023/03/15 11:41:24;;;;;;;;;;;;;;;;;;;;;
2023/03/15 11:44:15;;;;;;;5.07;3.60;;;;;;;;;;5017275;28;20049;-89
2023/03/15 11:47:00;;;;;;;5.53;4.55;;;;;;;;;;5031472;28;20587;-90
2023/03/15 11:49:53;;;;;;;4.03;2.33;;;;;;;;;;5012318;28;20045;-88
2023/03/15 11:53:15;;;;;;;;;;;;;;;;;;;;;
2023/03/15 11:56:24;;;;;;;2.92;2.00;;;;;;;;;;5028149;28;20060;-88
2023/03/15 11:59:12;;;;;;;31.65;29.15;;;;;;;;;;5012239;28;20622;-89
2023/03/15 12:02:14;;;;;;;7.72;7.00;;;;;;;;;;5029139;28;20048;-89
2023/03/15 12:05:08;;;;;;;186.43;170.00;;;;;;;;;;5029367;28;20064;-88
2023/03/15 12:08:27;;;;;;;56.35;52.28;;;;;;;;;;5012336;28;20056;-89
2023/03/15 12:11:34;;;;;;;2.72;2.40;;;;;;;;;;5010574;28;20057;-88
2023/03/15 12:14:25;;;;;;;17.48;15.98;;;;;;;;;;5034182;28;20053;-89
2023/03/15 12:17:29;;;;;;;7.50;6.85;;;;;;;;;;5036606;28;20128;-87
2023/03/15 12:20:31;;;;;;;6.57;3.80;;;;;;;;;;5030500;28;20123;-88
2023/03/15 12:23:25;;;;;;;73.72;68.88;;;;;;;;;;5017032;28;20059;-88
2023/03/15 12:26:15;;;;;;;11.30;10.38;;;;;;;;;;5013238;28;20072;-88
2023/03/15 12:28:54;;;;;;;3.42;2.30;;;;;;;;;;5032586;28;20045;-87
2023/03/15 12:32:16;;;;;;;6.10;2.00;;;;;;;;;;5032376;28;20060;-87
2023/03/15 12:35:12;;;;;;;5.00;2.53;;;;;;;;;;5013512;28;20049;-87
2023/03/15 12:38:27;;;;;;;78.25;71.22;;;;;;;;;;4973057;28;20184;-88
2023/03/15 12:41:17;;;;;;;5.28;2.10;;;;;;;;;;4995174;28;20049;-86
2023/03/15 12:44:22;;;;;;;6.00;2.47;;;;;;;;;;5001437;28;20057;-88
2023/03/15 12:46:50;;;;;;;2.13;1.73;;;;;;;;;;4996560;28;20467;-89
2023/03/15 12:49:18;;;;;;;71.88;66.65;;;;;;;;;;5013403;28;20065;-89
2023/03/15 12:52:17;;;;;;;2.63;2.13;;;;;;;;;;5012023;28;20048;-88
2023/03/15 12:55:18;;;;;;;2.65;2.45;;;;;;;;;;5012616;28;20042;-87
2023/03/15 12:57:58;;;;;;;3.47;2.15;;;;;;;;;;5011852;28;20045;-88
2023/03/15 13:00:32;;;;;;;2.97;2.00;;;;;;;;;;5011766;28;20042;-88
2023/03/15 13:03:35;;;;;;;9.50;2.40;;;;;;;;;;5004226;28;20046;-89
2023/03/15 13:09:59;;;;;;;100.38;92.25;;;;;;;;;;4984434;28;20038;-81
2023/03/15 13:12:55;;;;;;;7.82;7.35;;;;;;;;;;4994731;28;20054;-81
2023/03/15 13:15:28;;;;;;;5.78;5.28;;;;;;;;;;4985558;28;20057;-82
2023/03/15 13:18:00;;;;;;;10.52;9.93;;;;;;;;;;4997373;28;20108;-81
2023/03/15 13:20:41;;;;;;;2.45;2.10;;;;;;;;;;4997219;28;20046;-81
2023/03/15 13:23:20;;;;;;;20.88;19.55;;;;;;;;;;4993243;28;20046;-82
2023/03/15 13:25:53;;;;;;;5.03;1.98;;;;;;;;;;4996513;28;20052;-80
2023/03/15 13:28:23;;;;;;;2.25;1.70;;;;;;;;;;4994539;28;20073;-80
2023/03/15 13:30:52;;;;;;;14.10;12.73;;;;;;;;;;4995888;28;20050;-81
2023/03/15 13:33:21;;;;;;;4.88;3.40;;;;;;;;;;4997323;28;20046;-80
2023/03/15 13:35:56;;;;;;;1.70;1.60;;;;;;;;;;4996566;28;20046;-81
2023/03/15 13:38:25;;;;;;;2.58;2.20;;;;;;;;;;4997248;28;20058;-82
2023/03/15 13:40:54;;;;;;;17.23;15.95;;;;;;;;;;4996371;28;20153;-81
2023/03/15 13:43:24;;;;;;;61.47;57.70;;;;;;;;;;4998042;28;20045;-80
2023/03/15 13:45:53;;;;;;;57.53;53.03;;;;;;;;;;4997946;28;20105;-82
2023/03/15 13:48:21;;;;;;;2.80;2.08;;;;;;;;;;4996801;28;20112;-81
2023/03/15 13:50:50;;;;;;;23.73;21.90;;;;;;;;;;4994197;28;20105;-81
2023/03/15 13:53:25;;;;;;;7.80;5.97;;;;;;;;;;4993714;28;20054;-80
2023/03/15 13:56:16;;;;;;;3.47;1.60;;;;;;;;;;4994689;28;20064;-81
2023/03/15 13:58:44;;;;;;;3.60;1.85;;;;;;;;;;4993607;28;20112;-80
2023/03/15 14:01:12;;;;;;;3.97;2.00;;;;;;;;;;4993508;28;20061;-80
2023/03/15 14:03:42;;;;;;;3.88;1.95;;;;;;;;;;4990336;28;20047;-80
2023/03/15 14:06:13;;;;;;;1.73;1.42;;;;;;;;;;4989592;28;20039;-81
2023/03/15 14:08:41;;;;;;;3.90;1.65;;;;;;;;;;4996095;28;20046;-81
2023/03/15 14:11:23;;;;;;;5.38;1.75;;;;;;;;;;4997151;28;20058;-81
2023/03/15 14:13:58;;;;;;;3.60;1.42;;;;;;;;;;4998305;28;20076;-80
2023/03/15 14:16:31;;;;;;;14.07;12.90;;;;;;;;;;4992333;28;20081;-80
2023/03/15 14:19:18;;;;;;;11.52;10.68;;;;;;;;;;4995912;28;20054;-81
2023/03/15 14:21:47;;;;;;;3.78;1.63;;;;;;;;;;4995768;28;20053;-80
2023/03/15 14:24:17;;;;;;;2.53;2.05;;;;;;;;;;4996709;28;20563;-80
2023/03/15 14:26:50;;;;;;;3.45;2.00;;;;;;;;;;4997945;28;20046;-80
2023/03/15 14:29:21;;;;;;;3.08;1.40;;;;;;;;;;4994241;28;20046;-81
2023/03/15 14:31:50;;;;;;;3.63;1.70;;;;;;;;;;4996950;28;20054;-80
2023/03/15 14:34:23;;;;;;;2.63;1.20;;;;;;;;;;4995620;28;20073;-80
2023/03/15 14:36:53;;;;;;;4.10;2.70;;;;;;;;;;4995017;28;20046;-80
2023/03/15 14:39:31;;;;;;;4.53;2.00;;;;;;;;;;4994690;28;20050;-80
2023/03/15 14:41:58;;;;;;;3.30;1.60;;;;;;;;;;4981317;28;20043;-80
2023/03/15 14:44:26;;;;;;;2.42;1.63;;;;;;;;;;4978289;28;20054;-81
2023/03/15 14:46:53;;;;;;;4.80;3.42;;;;;;;;;;4978773;28;20050;-81
2023/03/15 14:49:23;;;;;;;1.20;1.20;;;;;;;;;;4980053;28;20055;-81
2023/03/15 14:52:01;;;;;;;5.68;3.17;;;;;;;;;;4980026;28;20042;-81
2023/03/15 14:54:29;;;;;;;4.85;1.60;;;;;;;;;;4976959;28;20086;-81
2023/03/15 14:56:57;;;;;;;2.20;1.70;;;;;;;;;;4976753;28;20055;-81
2023/03/15 14:59:24;;;;;;;3.67;1.50;;;;;;;;;;4966709;28;20094;-81
2023/03/15 15:01:54;;;;;;;3.55;1.85;;;;;;;;;;4952785;29;20047;-80
2023/03/15 15:04:22;;;;;;;2.85;2.65;;;;;;;;;;4962964;28;20053;-80
2023/03/15 15:06:50;;;;;;;1.52;1.30;;;;;;;;;;4976162;28;20566;-81
2023/03/15 15:09:20;;;;;;;10.00;9.07;;;;;;;;;;4976752;28;20054;-81
2023/03/15 15:11:48;;;;;;;58.45;53.70;;;;;;;;;;4966025;28;20047;-80
2023/03/15 15:14:15;;;;;;;2.33;1.33;;;;;;;;;;4974760;28;20051;-81
2023/03/15 15:16:43;;;;;;;4.13;3.67;;;;;;;;;;4975100;28;20218;-81
2023/03/15 15:19:11;;;;;;;14.85;13.77;;;;;;;;;;4971080;28;20046;-80
2023/03/15 15:21:39;;;;;;;6.43;5.80;;;;;;;;;;4973763;28;20505;-81
2023/03/15 15:24:11;;;;;;;3.58;2.05;;;;;;;;;;4975767;28;20051;-81
2023/03/15 15:26:39;;;;;;;6.40;2.88;;;;;;;;;;4977162;28;20043;-81
2023/03/15 15:29:06;;;;;;;3.47;2.30;;;;;;;;;;4963492;28;20090;-81
2023/03/15 15:31:33;;;;;;;12.90;8.02;;;;;;;;;;4954263;29;20051;-81
2023/03/15 15:34:01;;;;;;;3.17;1.20;;;;;;;;;;4966471;28;20055;-80
2023/03/15 15:36:37;;;;;;;3.22;1.38;;;;;;;;;;4961991;28;20056;-80
2023/03/15 15:39:10;;;;;;;4.28;1.60;;;;;;;;;;4967977;28;20045;-81
2023/03/15 15:41:37;;;;;;;3.97;1.70;;;;;;;;;;4964688;28;20074;-81
2023/03/15 15:44:10;;;;;;;3.25;1.60;;;;;;;;;;4957343;28;20075;-81
2023/03/15 15:46:38;;;;;;;1.30;1.20;;;;;;;;;;4961359;28;20043;-82
2023/03/15 15:49:05;;;;;;;2.47;1.50;;;;;;;;;;4965650;28;20192;-79
2023/03/15 15:51:37;;;;;;;3.05;1.60;;;;;;;;;;4969602;28;20090;-81
2023/03/15 15:54:10;;;;;;;2.67;1.80;;;;;;;;;;4967269;28;20508;-82